Terminal Aerodrome Forecast
Issued by NWS Huntsville, AL

Home | Current Version | Previous Version | Text Only | Print | Product List | Glossary On
Versions: 1 2 3 4 5 6 7 8 9 10 11 12 13 14 15 16 17 18 19
000
FTUS44 KHUN 272343
TAFMSL
TAF
KMSL 272343Z 2800/2824 VRB03KT P6SM FEW250
     FM280600 11005KT P6SM SCT150
      TEMPO 2808/2812 5SM BR
     FM281300 17010G18KT P6SM BKN015
     FM281600 17010G18KT P6SM SCT015 BKN025
     FM281900 17010G18KT P6SM SCT030 SCT250=

USA.gov is the U.S. government's official web portal to all federal, state and local government web resources and services.